Portada
METAR-TAF:

METAR-TAF

Aeroports :

Duixanbe, Tadjikistan

latitud: 38-33N, longitud: 068-47E, altitud: 803 m

Observació

L'informe es va fer fa 20 minuts, a les 18:30 UTC
Vent calma
Temperatura 11°C
Humitat 82%
Pressió 1021 hPa
Visibilitat 10 km o més
Escasses núvols a una alçada de 6600 ft, Cumulonimbus.
Núvols disperses a una alçada de 10000 ft

METAR: UTDD 131830Z 00000MPS 9999 FEW066CB SCT100 11/08 Q1021 R09/D NOSIG RMK QFE697/0929

Hora: 23:50 (18:50 UTC)

Pronòstic

L'informe es va fer fa 50 minuts, a les 18:00 UTC
Pronòstic vàlid del 13 a les 19 UTC al 14 a les 07 UTC
Vent 4 kt amb direcció variable
Visibilitat: 6000 m
Núvols disperses a una alçada de 5000 ft, Cumulonimbus.
Núvols disperses a una alçada de 10000 ft
Temporalment
l' 13 a les 22 UTC al 14 a les 07 UTC
Vent 10 kt del Est

TAF: UTDD 131800Z 1319/1407 VRB02MPS 6000 SCT050CB SCT100 TEMPO 1322/1407 08005MPS

Observacions i pronòstics meteorològics de més de 4000 aeroports (METAR i TAF).

Les estacions disponibles són els punts grocs i vermells al mapa.

Posi el ratolí al punt desitjat per veure el nom de l'estació.

Feu clic per veure les observacions i els pronòstics meteorològics.

Per canviar el mapa: feu clic els botons verds amb una creu de color negre per apropar; al botó verd amb un guió per allunyar la imatge; o en les fletxes verdes per a mapes adjacents.


METAR-TAF: